createdAt,value
2018-11-07T00:00:09.360Z,130.83
2018-11-07T00:02:38.463Z,133.63
2018-11-07T00:05:07.684Z,120.60
2018-11-07T00:07:36.844Z,111.67
2018-11-07T00:10:11.800Z,115.60
2018-11-07T00:12:40.852Z,109.50
2018-11-07T00:15:13.754Z,93.97
2018-11-07T00:17:43.022Z,104.50
2018-11-07T00:20:12.666Z,89.70
2018-11-07T00:22:41.793Z,112.47
2018-11-07T00:25:11.413Z,107.77
2018-11-07T00:27:40.691Z,97.60
2018-11-07T00:30:10.698Z,101.57
2018-11-07T00:32:39.912Z,104.60
2018-11-07T00:35:10.204Z,99.20
2018-11-07T00:37:39.453Z,106.33
2018-11-07T00:40:08.599Z,118.20
2018-11-07T00:42:37.587Z,112.70
2018-11-07T00:45:10.655Z,129.03
2018-11-07T00:47:39.776Z,145.63
2018-11-07T00:50:12.468Z,127.83
2018-11-07T00:52:42.119Z,125.47
2018-11-07T00:55:11.739Z,135.90
2018-11-07T00:57:40.904Z,118.63
2018-11-07T01:00:12.963Z,128.03
2018-11-07T01:02:42.013Z,128.67
2018-11-07T01:05:12.360Z,143.13
2018-11-07T01:07:42.449Z,131.30
2018-11-07T01:10:11.504Z,120.47
2018-11-07T01:12:41.545Z,125.00
2018-11-07T01:15:11.356Z,107.43
2018-11-07T01:17:41.063Z,111.83
2018-11-07T01:20:12.176Z,119.40
2018-11-07T01:22:41.221Z,117.50
2018-11-07T01:25:10.327Z,100.93
2018-11-07T01:27:39.394Z,111.53
2018-11-07T01:30:11.556Z,116.63
2018-11-07T01:32:40.771Z,107.53
2018-11-07T01:35:10.225Z,117.67
2018-11-07T01:37:39.355Z,120.30
2018-11-07T01:40:12.141Z,112.97
2018-11-07T01:42:41.534Z,123.97
2018-11-07T01:45:11.760Z,127.43
2018-11-07T01:47:40.847Z,137.87
2018-11-07T01:50:12.105Z,132.83
2018-11-07T01:52:41.342Z,143.80
2018-11-07T01:55:10.671Z,127.73
2018-11-07T01:57:39.748Z,129.60
2018-11-07T02:00:11.160Z,134.07
2018-11-07T02:02:41.295Z,136.23
2018-11-07T02:05:10.457Z,136.07
2018-11-07T02:07:39.838Z,122.13
2018-11-07T02:10:09.840Z,129.47
2018-11-07T02:12:39.333Z,125.43
2018-11-07T02:15:09.140Z,135.30
2018-11-07T02:17:38.900Z,116.40
2018-11-07T02:20:09.960Z,122.50
2018-11-07T02:22:39.060Z,120.83
2018-11-07T02:25:08.446Z,125.17
2018-11-07T02:27:37.796Z,110.47
2018-11-07T02:30:10.261Z,93.73
2018-11-07T02:32:39.322Z,99.10
2018-11-07T02:35:08.421Z,105.10
2018-11-07T02:37:37.646Z,117.23
2018-11-07T02:40:07.732Z,104.30
2018-11-07T02:42:36.901Z,113.30
2018-11-07T02:45:06.563Z,111.77
2018-11-07T02:47:35.731Z,106.67
2018-11-07T02:50:05.791Z,106.23
2018-11-07T02:52:34.903Z,125.07
2018-11-07T02:55:04.346Z,133.37
2018-11-07T02:57:33.425Z,121.80
2018-11-07T03:00:02.581Z,119.60
2018-11-07T03:02:31.684Z,122.27
2018-11-07T03:05:00.866Z,115.27
2018-11-07T03:07:30.702Z,136.47
2018-11-07T03:09:59.843Z,132.87
2018-11-07T03:12:28.984Z,145.90
2018-11-07T03:14:58.023Z,120.17
2018-11-07T03:17:27.072Z,135.00
2018-11-07T03:19:56.130Z,148.37
2018-11-07T03:22:25.243Z,137.33
2018-11-07T03:24:54.342Z,120.17
2018-11-07T03:27:23.558Z,109.67
2018-11-07T03:29:52.616Z,131.50
2018-11-07T03:32:21.640Z,127.23
2018-11-07T03:34:50.655Z,120.67
2018-11-07T03:37:19.749Z,139.37
2018-11-07T03:39:48.776Z,127.60
2018-11-07T03:42:17.800Z,125.20
2018-11-07T03:44:46.882Z,129.17
2018-11-07T03:47:15.932Z,125.33
2018-11-07T03:49:45.056Z,112.03
2018-11-07T03:52:14.095Z,130.77
2018-11-07T03:54:43.146Z,139.40
2018-11-07T03:57:12.243Z,136.57
2018-11-07T03:59:41.257Z,126.83
2018-11-07T04:02:10.345Z,119.20
2018-11-07T04:04:39.395Z,128.33
2018-11-07T04:07:09.462Z,146.50
2018-11-07T04:09:38.506Z,132.90
2018-11-07T04:12:07.573Z,136.97
2018-11-07T04:14:36.590Z,136.43
2018-11-07T04:17:05.636Z,128.20
2018-11-07T04:19:34.703Z,122.03
2018-11-07T04:22:03.778Z,152.97
2018-11-07T04:24:32.816Z,146.77
2018-11-07T04:27:01.870Z,154.07
2018-11-07T04:29:30.923Z,132.47
2018-11-07T04:31:59.982Z,135.93
2018-11-07T04:34:29.213Z,146.83
2018-11-07T04:36:58.269Z,132.30
2018-11-07T04:39:27.377Z,140.77
2018-11-07T04:41:56.476Z,140.60
2018-11-07T04:44:26.327Z,151.90
2018-11-07T04:46:55.375Z,155.13
2018-11-07T04:49:24.413Z,140.50
2018-11-07T04:51:53.560Z,150.37
2018-11-07T04:54:22.581Z,124.47
2018-11-07T04:56:51.621Z,143.77
2018-11-07T04:59:20.786Z,138.10
2018-11-07T05:01:49.905Z,177.13
2018-11-07T05:04:18.947Z,144.67
2018-11-07T05:06:48.150Z,154.17
2018-11-07T05:09:17.287Z,155.63
2018-11-07T05:11:46.364Z,160.10
2018-11-07T05:14:15.423Z,164.03
2018-11-07T05:16:44.472Z,161.90
2018-11-07T05:19:13.516Z,153.67
2018-11-07T05:21:42.554Z,168.70
2018-11-07T05:24:11.694Z,193.17
2018-11-07T05:26:40.834Z,163.93
2018-11-07T05:29:09.998Z,185.63
2018-11-07T05:31:39.100Z,203.97
2018-11-07T05:34:08.189Z,165.00
2018-11-07T05:36:37.312Z,235.43
2018-11-07T05:39:08.937Z,220.83
2018-11-07T05:41:38.098Z,217.73
2018-11-07T05:44:07.359Z,195.77
2018-11-07T05:46:36.477Z,182.37
2018-11-07T05:49:05.695Z,193.20
2018-11-07T05:51:34.643Z,167.00
2018-11-07T05:54:03.869Z,155.30
2018-11-07T05:56:32.974Z,173.13
2018-11-07T05:59:02.671Z,149.43
2018-11-07T06:01:32.130Z,148.27
2018-11-07T06:04:01.182Z,138.40
2018-11-07T06:06:30.281Z,128.27
2018-11-07T06:08:59.970Z,144.37
2018-11-07T06:11:29.961Z,128.47
2018-11-07T06:13:58.965Z,121.97
2018-11-07T06:16:28.032Z,144.33
2018-11-07T06:18:57.124Z,142.70
2018-11-07T06:21:26.225Z,121.53
2018-11-07T06:23:55.324Z,119.40
2018-11-07T06:26:24.400Z,128.77
2018-11-07T06:28:53.563Z,146.03
2018-11-07T06:31:22.644Z,129.27
2018-11-07T06:33:51.763Z,127.53
2018-11-07T06:36:20.795Z,115.80
2018-11-07T06:38:49.870Z,139.00
2018-11-07T06:41:18.923Z,113.17
2018-11-07T06:43:47.976Z,122.03
2018-11-07T06:46:17.009Z,131.90
2018-11-07T06:48:46.051Z,118.33
2018-11-07T06:51:15.128Z,132.43
2018-11-07T06:53:44.151Z,107.63
2018-11-07T06:56:13.403Z,129.07
2018-11-07T06:58:42.547Z,125.10
2018-11-07T07:01:11.652Z,144.63
2018-11-07T07:03:40.738Z,115.23
2018-11-07T07:06:09.841Z,116.23
2018-11-07T07:08:38.876Z,132.00
2018-11-07T07:11:07.920Z,145.47
2018-11-07T07:13:37.088Z,128.90
2018-11-07T07:16:06.283Z,116.00
2018-11-07T07:18:35.365Z,120.33
2018-11-07T07:21:05.661Z,112.17
2018-11-07T07:23:34.707Z,119.97
2018-11-07T07:26:03.905Z,121.47
2018-11-07T07:28:33.004Z,119.63
2018-11-07T07:31:02.119Z,124.07
2018-11-07T07:33:31.205Z,134.20
2018-11-07T07:36:00.297Z,123.63
2018-11-07T07:38:29.315Z,119.63
2018-11-07T07:40:58.371Z,150.30
2018-11-07T07:43:27.385Z,122.93
2018-11-07T07:45:56.427Z,110.90
2018-11-07T07:48:25.592Z,130.80
2018-11-07T07:50:54.689Z,120.33
2018-11-07T07:53:23.730Z,110.37
2018-11-07T07:55:52.752Z,103.93
2018-11-07T07:58:21.777Z,119.67
2018-11-07T08:00:50.836Z,107.03
2018-11-07T08:03:20.018Z,115.50
2018-11-07T08:05:49.106Z,97.17
2018-11-07T08:08:18.199Z,86.77
2018-11-07T08:10:47.324Z,83.97
2018-11-07T08:13:16.577Z,77.57
2018-11-07T08:15:45.717Z,75.40
2018-11-07T08:18:14.783Z,87.93
2018-11-07T08:20:43.874Z,79.47
2018-11-07T08:23:12.963Z,74.23
2018-11-07T08:25:42.017Z,69.93
2018-11-07T08:28:11.106Z,67.43
2018-11-07T08:30:40.209Z,67.90
2018-11-07T08:33:09.212Z,59.13
2018-11-07T08:35:38.239Z,63.33
2018-11-07T08:38:07.274Z,55.03
2018-11-07T08:40:37.003Z,58.83
2018-11-07T08:43:06.104Z,53.77
2018-11-07T08:45:35.254Z,48.50
2018-11-07T08:48:04.587Z,48.97
2018-11-07T08:50:33.631Z,41.70
2018-11-07T08:53:02.978Z,48.43
2018-11-07T08:55:32.116Z,55.33
2018-11-07T08:58:02.183Z,52.67
2018-11-07T09:00:31.450Z,44.93
2018-11-07T09:03:00.899Z,43.63
2018-11-07T09:05:30.298Z,50.33
2018-11-07T09:08:00.293Z,44.23
2018-11-07T09:10:29.522Z,46.00
2018-11-07T09:12:58.844Z,47.07
2018-11-07T09:15:28.205Z,48.30
2018-11-07T09:17:57.321Z,44.70
2018-11-07T09:20:26.457Z,41.90
2018-11-07T09:22:56.492Z,49.23
2018-11-07T09:25:26.933Z,41.47
2018-11-07T09:27:56.234Z,39.03
2018-11-07T09:30:26.358Z,43.00
2018-11-07T09:32:57.892Z,45.87
2018-11-07T09:35:27.957Z,38.80
2018-11-07T09:37:58.730Z,41.57
2018-11-07T09:40:28.124Z,41.10
2018-11-07T09:42:57.815Z,44.60
2018-11-07T09:45:27.002Z,37.30
2018-11-07T09:47:56.116Z,38.10
2018-11-07T09:50:25.216Z,39.13
2018-11-07T09:52:54.272Z,39.53
2018-11-07T09:55:23.459Z,35.57
2018-11-07T09:57:52.513Z,30.50
2018-11-07T10:00:21.967Z,41.63
2018-11-07T10:02:51.047Z,37.97
2018-11-07T10:05:20.825Z,36.23
2018-11-07T10:07:49.961Z,30.37
2018-11-07T10:10:20.344Z,29.97
2018-11-07T10:12:49.472Z,32.07
2018-11-07T10:15:18.836Z,33.70
2018-11-07T10:17:47.886Z,29.43
2018-11-07T10:20:18.386Z,32.93
2018-11-07T10:22:47.993Z,32.47
2018-11-07T10:25:17.176Z,34.37
2018-11-07T10:27:46.607Z,37.90
2018-11-07T10:30:16.981Z,37.90
2018-11-07T10:32:47.121Z,33.53
2018-11-07T10:35:16.262Z,34.20
2018-11-07T10:37:45.361Z,27.27
2018-11-07T10:40:16.500Z,29.00
2018-11-07T10:42:46.118Z,31.37
2018-11-07T10:45:15.223Z,28.47
2018-11-07T10:47:45.291Z,27.53
2018-11-07T10:50:15.431Z,26.33
2018-11-07T10:52:45.088Z,31.20
2018-11-07T10:55:14.851Z,35.40
2018-11-07T10:57:43.944Z,32.80
2018-11-07T11:00:20.176Z,27.67
2018-11-07T11:03:55.122Z,30.97
2018-11-07T11:06:24.193Z,32.17
2018-11-07T11:08:53.410Z,30.93
2018-11-07T11:11:22.649Z,27.87
2018-11-07T11:13:51.751Z,28.30
2018-11-07T11:16:20.859Z,31.30
2018-11-07T11:18:49.983Z,26.73
2018-11-07T11:21:19.094Z,26.63
2018-11-07T11:23:48.175Z,27.13
2018-11-07T11:26:17.273Z,26.57
2018-11-07T11:28:46.318Z,26.13
2018-11-07T11:31:15.369Z,29.07
2018-11-07T11:33:44.600Z,29.27
2018-11-07T11:36:14.322Z,26.73
2018-11-07T11:38:43.428Z,26.90
2018-11-07T11:41:12.777Z,29.30
2018-11-07T11:43:41.798Z,28.37
2018-11-07T11:46:10.848Z,31.50
2018-11-07T11:48:39.915Z,27.83
2018-11-07T11:51:09.065Z,26.93
2018-11-07T11:53:38.391Z,30.03
2018-11-07T11:56:07.523Z,32.33
2018-11-07T11:58:36.525Z,29.87
2018-11-07T12:01:06.157Z,34.83
2018-11-07T12:03:35.283Z,27.10
2018-11-07T12:06:04.708Z,31.50
2018-11-07T12:08:33.935Z,27.60
2018-11-07T12:11:02.834Z,28.60
2018-11-07T12:13:31.959Z,31.27
2018-11-07T12:16:00.959Z,29.70
2018-11-07T12:18:30.004Z,29.40
2018-11-07T12:20:59.304Z,31.20
2018-11-07T12:23:28.426Z,31.80
2018-11-07T12:25:57.580Z,28.67
2018-11-07T12:28:26.719Z,32.63
2018-11-07T12:30:55.891Z,33.00
2018-11-07T12:33:24.967Z,29.57
2018-11-07T12:35:54.062Z,30.63
2018-11-07T12:38:23.195Z,35.30
2018-11-07T12:40:52.298Z,32.97
2018-11-07T12:43:21.387Z,35.13
2018-11-07T12:45:50.463Z,32.77
2018-11-07T12:48:19.515Z,33.33
2018-11-07T12:50:48.586Z,30.90
2018-11-07T12:53:17.703Z,34.30
2018-11-07T12:55:46.769Z,34.50
2018-11-07T12:58:15.988Z,34.93
2018-11-07T13:00:45.005Z,38.03
2018-11-07T13:03:14.181Z,41.00
2018-11-07T13:05:43.265Z,44.43
2018-11-07T13:08:12.453Z,44.17
2018-11-07T13:10:41.668Z,46.70
2018-11-07T13:13:10.729Z,46.53
2018-11-07T13:15:39.804Z,44.57
2018-11-07T13:18:08.978Z,41.70
2018-11-07T13:20:38.108Z,49.33
2018-11-07T13:23:07.137Z,41.87
2018-11-07T13:25:36.213Z,37.30
2018-11-07T13:28:05.488Z,40.87
2018-11-07T13:30:34.543Z,44.80
2018-11-07T13:33:03.581Z,46.47
2018-11-07T13:35:32.644Z,43.13
2018-11-07T13:38:02.061Z,43.43
2018-11-07T13:40:30.816Z,39.87
2018-11-07T13:42:59.982Z,42.23
2018-11-07T13:45:29.034Z,43.77
2018-11-07T13:47:58.084Z,40.03
2018-11-07T13:50:27.197Z,41.70
2018-11-07T13:52:56.387Z,43.60
2018-11-07T13:55:25.466Z,43.33
2018-11-07T13:57:54.560Z,42.37
2018-11-07T14:00:23.944Z,45.77
2018-11-07T14:02:53.648Z,41.40
2018-11-07T14:05:22.916Z,40.77
2018-11-07T14:07:51.918Z,46.67
2018-11-07T14:10:22.055Z,45.57
2018-11-07T14:12:51.645Z,38.10
2018-11-07T14:15:20.883Z,42.37
2018-11-07T14:17:50.284Z,37.90
2018-11-07T14:20:19.572Z,39.03
2018-11-07T14:22:48.663Z,41.37
2018-11-07T14:25:17.768Z,43.30
2018-11-07T14:27:47.171Z,35.03
2018-11-07T14:30:18.363Z,41.57
2018-11-07T14:32:53.854Z,40.80
2018-11-07T14:35:23.276Z,42.73
2018-11-07T14:37:53.201Z,46.63
2018-11-07T14:40:22.388Z,44.77
2018-11-07T14:42:51.565Z,43.47
2018-11-07T14:45:20.841Z,42.03
2018-11-07T14:47:50.205Z,41.77
2018-11-07T14:50:19.184Z,45.07
2018-11-07T14:52:48.292Z,46.10
2018-11-07T14:55:17.368Z,46.73
2018-11-07T14:57:46.418Z,46.33
2018-11-07T15:00:16.177Z,54.30
2018-11-07T15:02:45.900Z,43.47
2018-11-07T15:05:15.778Z,43.33
2018-11-07T15:07:45.071Z,46.33
2018-11-07T15:10:15.225Z,49.40
2018-11-07T15:12:44.346Z,45.50
2018-11-07T15:15:14.851Z,48.07
2018-11-07T15:17:44.021Z,49.27
2018-11-07T15:20:14.211Z,52.77
2018-11-07T15:22:43.338Z,45.87
2018-11-07T15:25:13.683Z,43.73
2018-11-07T15:27:43.983Z,46.33
2018-11-07T15:30:14.255Z,48.17
2018-11-07T15:32:43.936Z,48.47
2018-11-07T15:35:13.258Z,50.77
2018-11-07T15:37:42.350Z,51.20
2018-11-07T15:40:13.273Z,49.17
2018-11-07T15:42:42.749Z,51.70
2018-11-07T15:45:15.458Z,50.47
2018-11-07T15:47:44.676Z,52.67
2018-11-07T15:50:19.217Z,55.13
2018-11-07T15:52:48.701Z,54.13
2018-11-07T15:55:17.936Z,56.23
2018-11-07T15:57:47.012Z,49.03
2018-11-07T16:00:17.129Z,54.30
2018-11-07T16:02:46.286Z,57.13
2018-11-07T16:05:16.059Z,52.43
2018-11-07T16:07:45.133Z,49.50
2018-11-07T16:10:14.925Z,55.80
2018-11-07T16:12:43.973Z,59.30
2018-11-07T16:15:15.318Z,52.97
2018-11-07T16:17:44.670Z,61.43
2018-11-07T16:20:18.003Z,54.43
2018-11-07T16:22:47.806Z,52.67
2018-11-07T16:25:17.652Z,51.30
2018-11-07T16:27:46.760Z,53.67
2018-11-07T16:30:18.066Z,56.40
2018-11-07T16:32:47.096Z,62.70
2018-11-07T16:35:16.362Z,56.77
2018-11-07T16:37:45.407Z,45.90
2018-11-07T16:40:15.871Z,54.70
2018-11-07T16:42:45.340Z,49.97
2018-11-07T16:45:15.565Z,48.37
2018-11-07T16:47:44.814Z,47.23
2018-11-07T16:50:14.839Z,42.63
2018-11-07T16:52:43.965Z,48.23
2018-11-07T16:55:13.348Z,45.17
2018-11-07T16:57:42.439Z,44.60
2018-11-07T17:00:19.666Z,43.87
2018-11-07T17:02:49.481Z,46.57
2018-11-07T17:05:19.079Z,46.27
2018-11-07T17:07:48.392Z,47.80
2018-11-07T17:10:17.536Z,41.77
2018-11-07T17:12:46.577Z,45.77
2018-11-07T17:15:15.783Z,45.50
2018-11-07T17:17:44.900Z,53.17
2018-11-07T17:20:14.913Z,42.83
2018-11-07T17:22:44.344Z,43.57
2018-11-07T17:25:17.345Z,45.47
2018-11-07T17:27:46.503Z,62.00
2018-11-07T17:30:16.808Z,53.60
2018-11-07T17:32:45.918Z,53.80
2018-11-07T17:35:16.768Z,54.17
2018-11-07T17:37:46.772Z,55.03
2018-11-07T17:40:20.547Z,54.03
2018-11-07T17:42:49.882Z,50.47
2018-11-07T17:45:23.022Z,46.43
2018-11-07T17:47:53.800Z,48.67
2018-11-07T17:50:23.403Z,47.17
2018-11-07T17:52:53.249Z,47.70
2018-11-07T17:55:22.697Z,48.40
2018-11-07T17:57:52.479Z,45.53
2018-11-07T18:00:26.660Z,54.97
2018-11-07T18:02:55.911Z,56.47
2018-11-07T18:05:25.132Z,63.50
2018-11-07T18:07:54.432Z,53.20
2018-11-07T18:10:23.668Z,53.40
2018-11-07T18:12:52.856Z,48.67
2018-11-07T18:15:23.560Z,56.20
2018-11-07T18:17:52.941Z,61.20
2018-11-07T18:20:24.568Z,57.77
2018-11-07T18:22:54.359Z,64.87
2018-11-07T18:25:23.571Z,49.50
2018-11-07T18:27:53.417Z,47.13
2018-11-07T18:30:22.838Z,45.17
2018-11-07T18:32:52.061Z,40.87
2018-11-07T18:35:21.399Z,45.30
2018-11-07T18:37:50.523Z,45.13
2018-11-07T18:40:20.421Z,38.47
2018-11-07T18:42:49.524Z,52.73
2018-11-07T18:45:18.764Z,41.97
2018-11-07T18:47:47.955Z,45.07
2018-11-07T18:50:18.474Z,42.70
2018-11-07T18:52:47.542Z,42.40
2018-11-07T18:55:17.210Z,44.10
2018-11-07T18:57:46.717Z,42.77
2018-11-07T19:00:17.431Z,38.40
2018-11-07T19:02:47.133Z,39.83
2018-11-07T19:05:16.235Z,38.80
2018-11-07T19:07:45.233Z,39.17
2018-11-07T19:10:16.476Z,39.63
2018-11-07T19:12:46.289Z,44.27
2018-11-07T19:15:15.918Z,34.40
2018-11-07T19:17:45.833Z,35.07
2018-11-07T19:20:15.629Z,33.73
2018-11-07T19:22:44.649Z,35.53
2018-11-07T19:25:15.991Z,34.07
2018-11-07T19:27:45.053Z,35.77
2018-11-07T19:30:15.813Z,36.17
2018-11-07T19:32:45.927Z,38.33
2018-11-07T19:35:15.835Z,42.10
2018-11-07T19:37:46.693Z,40.40
2018-11-07T19:40:18.543Z,66.93
2018-11-07T19:42:48.919Z,87.50
2018-11-07T19:45:19.286Z,64.13
2018-11-07T19:47:49.976Z,56.07
2018-11-07T19:50:21.235Z,59.13
2018-11-07T19:52:51.256Z,62.27
2018-11-07T19:55:22.567Z,55.80
2018-11-07T19:57:58.228Z,62.43
2018-11-07T20:00:27.709Z,63.17
2018-11-07T20:02:57.130Z,61.43
2018-11-07T20:05:27.155Z,55.93
2018-11-07T20:07:56.436Z,63.97
2018-11-07T20:10:26.156Z,68.10
2018-11-07T20:12:55.604Z,57.53
2018-11-07T20:15:25.273Z,61.27
2018-11-07T20:20:11.801Z,61.43
2018-11-07T20:29:37.982Z,64.40
2018-11-07T20:32:11.747Z,62.13
2018-11-07T20:34:42.623Z,64.63
2018-11-07T20:37:13.087Z,70.90
2018-11-07T20:39:43.038Z,75.77
2018-11-07T20:42:12.905Z,73.70
2018-11-07T20:44:42.728Z,82.20
2018-11-07T20:47:12.652Z,69.73
2018-11-07T20:52:39.217Z,77.40
2018-11-07T20:55:13.591Z,76.97
2018-11-07T20:57:43.658Z,68.87
2018-11-07T21:00:28.030Z,69.13
2018-11-07T21:02:58.824Z,81.90
2018-11-07T21:08:07.386Z,82.50
2018-11-07T21:10:36.931Z,75.07
2018-11-07T21:13:07.906Z,89.93
2018-11-07T21:15:39.918Z,83.40
2018-11-07T21:18:11.032Z,90.43
2018-11-07T21:20:40.827Z,83.97
2018-11-07T21:23:12.206Z,88.43
2018-11-07T21:25:45.850Z,88.23
2018-11-07T21:28:18.111Z,89.53
2018-11-07T21:30:48.189Z,87.97
2018-11-07T21:33:17.866Z,114.80
2018-11-07T21:35:50.389Z,100.80
2018-11-07T21:38:21.130Z,90.23
2018-11-07T21:40:52.574Z,102.27
2018-11-07T21:43:23.538Z,94.00
2018-11-07T21:45:52.800Z,97.67
2018-11-07T21:48:23.012Z,84.37
2018-11-07T21:50:53.446Z,111.90
2018-11-07T21:53:23.529Z,98.80
2018-11-07T21:55:54.163Z,96.20
2018-11-07T21:58:24.867Z,97.17
2018-11-07T22:00:55.439Z,108.77
2018-11-07T22:03:27.909Z,99.93
2018-11-07T22:08:47.887Z,101.33
2018-11-07T22:11:17.606Z,109.93
2018-11-07T22:13:47.149Z,101.80
2018-11-07T22:16:16.744Z,110.00
2018-11-07T22:18:46.453Z,104.57
2018-11-07T22:21:16.297Z,104.83
2018-11-07T22:23:45.768Z,119.13
2018-11-07T22:26:15.256Z,115.53
2018-11-07T22:28:44.607Z,103.03
2018-11-07T22:31:15.941Z,96.73
2018-11-07T22:33:46.628Z,97.10
2018-11-07T22:36:16.341Z,90.77
2018-11-07T22:38:45.659Z,88.13
2018-11-07T22:41:15.198Z,84.40
2018-11-07T22:43:44.799Z,97.10
2018-11-07T22:46:14.515Z,96.37
2018-11-07T22:48:44.009Z,95.67
2018-11-07T22:51:13.834Z,81.63
2018-11-07T22:53:43.191Z,86.10
2018-11-07T22:56:12.670Z,77.63
2018-11-07T22:58:42.025Z,84.63
2018-11-07T23:01:43.172Z,74.93
2018-11-07T23:04:12.531Z,69.03
2018-11-07T23:06:41.659Z,60.47
2018-11-07T23:09:12.972Z,62.90
2018-11-07T23:11:43.378Z,64.13
2018-11-07T23:14:14.632Z,59.63
2018-11-07T23:16:43.918Z,61.70
2018-11-07T23:19:13.753Z,58.13
2018-11-07T23:21:43.205Z,67.50
2018-11-07T23:24:12.500Z,59.93
2018-11-07T23:26:41.906Z,68.93
2018-11-07T23:29:11.731Z,79.40
2018-11-07T23:31:41.310Z,71.67
2018-11-07T23:34:10.657Z,63.70
2018-11-07T23:36:41.150Z,66.10
2018-11-07T23:39:10.828Z,50.20
2018-11-07T23:41:40.069Z,55.90
2018-11-07T23:44:09.642Z,57.40
2018-11-07T23:46:39.031Z,48.30
2018-11-07T23:49:08.478Z,54.37
2018-11-07T23:51:43.756Z,46.60
2018-11-07T23:54:14.228Z,49.03
2018-11-07T23:56:43.822Z,54.27
2018-11-07T23:59:13.643Z,51.13
